createdAt,value
2022-07-29T09:28:37.045Z,20.99
2022-07-29T09:31:09.727Z,21.59
2022-07-29T09:33:42.959Z,22.30
2022-07-29T09:36:13.693Z,22.41
2022-07-29T09:38:43.941Z,23.09
2022-07-29T09:41:14.812Z,22.57
2022-07-29T09:44:01.305Z,23.69
2022-07-29T09:46:33.178Z,23.74
2022-07-29T09:49:11.692Z,23.46
2022-07-29T09:51:44.020Z,24.05
2022-07-29T09:54:30.762Z,24.30
2022-07-29T09:57:00.768Z,24.37
2022-07-29T09:59:31.310Z,23.41
2022-07-29T10:02:07.281Z,22.49
2022-07-29T10:04:45.928Z,22.49
2022-07-29T10:07:16.323Z,22.20
2022-07-29T10:09:59.628Z,22.95
2022-07-29T10:12:33.209Z,22.65
2022-07-29T10:15:06.508Z,21.94
2022-07-29T10:17:37.742Z,22.08
2022-07-29T10:20:16.480Z,21.72
2022-07-29T10:22:53.578Z,21.23
2022-07-29T10:25:25.729Z,21.11
2022-07-29T10:27:58.567Z,21.01
2022-07-29T10:30:32.198Z,21.01
2022-07-29T10:33:22.211Z,21.66
2022-07-29T10:36:04.795Z,22.25
2022-07-29T10:38:45.832Z,22.94
2022-07-29T10:41:53.571Z,22.71
2022-07-29T10:44:27.847Z,22.65
2022-07-29T10:46:59.465Z,22.60
2022-07-29T10:49:32.902Z,22.23
2022-07-29T10:52:19.614Z,22.06
2022-07-29T10:54:56.505Z,21.87
2022-07-29T10:57:54.030Z,21.52
2022-07-29T11:00:35.271Z,21.26
2022-07-29T11:03:10.893Z,21.01
2022-07-29T11:06:10.911Z,20.99
2022-07-29T11:08:44.509Z,21.14
2022-07-29T11:11:24.050Z,21.19
2022-07-29T11:14:01.748Z,21.59
2022-07-29T11:17:03.200Z,21.45
2022-07-29T11:19:40.316Z,21.38
2022-07-29T11:22:18.069Z,21.46
2022-07-29T11:24:50.168Z,21.56
2022-07-29T11:27:28.504Z,22.27
2022-07-29T11:30:06.945Z,22.00
2022-07-29T11:35:53.715Z,21.35
2022-07-29T11:38:33.570Z,21.19
2022-07-29T11:41:31.861Z,20.86
2022-07-29T11:44:04.205Z,20.96
2022-07-29T11:47:00.725Z,20.68
2022-07-29T11:49:33.671Z,20.84
2022-07-29T11:52:06.048Z,21.56
2022-07-29T11:54:57.709Z,21.78
2022-07-29T11:57:36.207Z,21.62
2022-07-29T12:00:18.603Z,21.70
2022-07-29T12:02:51.013Z,21.89
2022-07-29T12:05:36.205Z,21.47
2022-07-29T12:08:30.046Z,21.70
2022-07-29T12:11:00.476Z,21.64
2022-07-29T12:13:43.242Z,21.85
2022-07-29T12:16:14.884Z,21.28
2022-07-29T12:18:45.761Z,21.76
2022-07-29T12:21:16.326Z,21.86
2022-07-29T12:24:04.797Z,21.58
2022-07-29T12:26:51.901Z,21.93
2022-07-29T12:29:34.668Z,21.73
2022-07-29T12:32:14.416Z,21.61
2022-07-29T12:34:46.912Z,21.12
2022-07-29T12:37:17.895Z,21.13
2022-07-29T12:39:50.719Z,21.04
2022-07-29T12:42:21.024Z,20.79
2022-07-29T12:44:56.084Z,20.70
2022-07-29T12:47:26.541Z,20.24
2022-07-29T12:50:20.209Z,20.40
2022-07-29T12:52:53.343Z,20.19
2022-07-29T12:55:48.221Z,20.28
2022-07-29T12:58:42.751Z,20.07
2022-07-29T13:01:16.977Z,19.90
2022-07-29T13:03:56.969Z,19.61
2022-07-29T13:06:50.974Z,19.54
2022-07-29T13:09:26.829Z,19.26
2022-07-29T13:11:57.987Z,19.17
2022-07-29T13:14:37.089Z,19.02
2022-07-29T13:17:25.614Z,19.04
2022-07-29T13:20:11.083Z,18.85
2022-07-29T13:22:49.487Z,18.81
2022-07-29T13:25:32.796Z,18.62
2022-07-29T13:28:05.287Z,18.67
2022-07-29T13:30:36.539Z,18.61
2022-07-29T13:33:15.403Z,18.57
2022-07-29T13:35:46.725Z,18.66
2022-07-29T13:38:18.306Z,18.70
2022-07-29T13:40:48.964Z,18.67
2022-07-29T13:43:20.086Z,18.52
2022-07-29T13:45:51.324Z,18.36
2022-07-29T13:48:22.160Z,18.25
2022-07-29T13:50:53.263Z,18.43
2022-07-29T13:53:27.162Z,18.45
2022-07-29T13:55:58.876Z,18.30
2022-07-29T13:58:30.369Z,18.08
2022-07-29T14:01:00.756Z,18.17
2022-07-29T14:03:32.001Z,18.15
2022-07-29T14:06:04.472Z,18.14
2022-07-29T14:08:35.346Z,17.86
2022-07-29T14:11:07.045Z,18.00
2022-07-29T14:13:38.743Z,17.90
2022-07-29T14:16:10.582Z,17.86
2022-07-29T14:18:41.423Z,17.88
2022-07-29T14:21:12.466Z,17.94
2022-07-29T14:23:43.906Z,17.74
2022-07-29T14:26:15.889Z,17.68
2022-07-29T14:28:53.101Z,17.58
2022-07-29T14:31:25.317Z,17.75
2022-07-29T14:33:58.834Z,17.68
2022-07-29T14:36:31.565Z,17.66
2022-07-29T14:39:02.719Z,17.52
2022-07-29T14:41:33.602Z,17.53
2022-07-29T14:44:05.279Z,17.49
2022-07-29T14:46:35.745Z,17.59
2022-07-29T14:49:06.491Z,17.19
2022-07-29T14:51:40.425Z,17.35
2022-07-29T14:54:12.141Z,17.33
2022-07-29T14:56:46.711Z,17.42
2022-07-29T14:59:18.841Z,17.33
2022-07-29T15:01:49.487Z,17.52
2022-07-29T15:04:21.122Z,17.40
2022-07-29T15:06:53.051Z,17.44
2022-07-29T15:09:23.559Z,17.26
2022-07-29T15:11:55.831Z,17.31
2022-07-29T15:14:27.482Z,17.33
2022-07-29T15:16:57.897Z,17.39
2022-07-29T15:19:29.212Z,17.38
2022-07-29T15:22:01.220Z,17.13
2022-07-29T15:24:32.031Z,16.99
2022-07-29T15:27:03.283Z,17.27
2022-07-29T15:29:34.493Z,17.35
2022-07-29T15:32:04.868Z,17.38
2022-07-29T15:34:36.566Z,17.14
2022-07-29T15:37:07.885Z,17.21
2022-07-29T15:39:40.448Z,17.06
2022-07-29T15:42:11.589Z,17.10
2022-07-29T15:44:41.878Z,16.88
2022-07-29T15:47:12.544Z,16.98
2022-07-29T15:49:49.372Z,17.01
2022-07-29T15:52:26.051Z,17.12
2022-07-29T15:54:59.285Z,17.17
2022-07-29T15:57:31.259Z,17.24
2022-07-29T16:00:02.205Z,17.32
2022-07-29T16:02:37.720Z,17.22
2022-07-29T16:05:12.851Z,17.25
2022-07-29T16:07:45.479Z,17.23
2022-07-29T16:10:16.916Z,16.94
2022-07-29T16:12:46.780Z,17.05
2022-07-29T16:15:17.212Z,17.19
2022-07-29T16:17:48.723Z,17.24
2022-07-29T16:20:19.423Z,17.00
2022-07-29T16:22:52.403Z,17.15
2022-07-29T16:25:57.112Z,17.01
2022-07-29T16:28:22.720Z,17.05
2022-07-29T16:30:53.976Z,16.91
2022-07-29T16:33:25.122Z,16.85
2022-07-29T16:35:55.763Z,16.97
2022-07-29T16:38:27.119Z,16.61
2022-07-29T16:40:57.347Z,16.82
2022-07-29T16:43:28.538Z,16.82
2022-07-29T16:45:58.984Z,16.64
2022-07-29T16:48:30.625Z,16.66
2022-07-29T16:51:04.401Z,16.68
2022-07-29T16:53:36.909Z,16.38
2022-07-29T16:56:08.477Z,16.52
2022-07-29T16:58:44.176Z,16.50
2022-07-29T17:01:15.131Z,16.50
2022-07-29T17:04:06.724Z,16.34
2022-07-29T17:06:39.086Z,16.39
2022-07-29T17:09:12.780Z,16.27
2022-07-29T17:11:52.911Z,16.06
2022-07-29T17:14:32.880Z,16.22
2022-07-29T17:17:04.650Z,16.30
2022-07-29T17:19:44.407Z,16.22
2022-07-29T17:22:19.307Z,16.26
2022-07-29T17:24:51.007Z,16.24
2022-07-29T17:27:23.874Z,16.10
2022-07-29T17:30:01.682Z,16.14
2022-07-29T17:32:39.567Z,15.97
2022-07-29T17:35:29.513Z,15.90
2022-07-29T17:38:01.733Z,16.05
2022-07-29T17:40:34.444Z,15.84
2022-07-29T17:43:07.155Z,15.83
2022-07-29T17:45:49.627Z,15.96
2022-07-29T17:48:22.902Z,15.99
2022-07-29T17:50:56.249Z,15.86
2022-07-29T17:53:27.459Z,15.77
2022-07-29T17:56:00.609Z,15.94
2022-07-29T17:58:32.622Z,15.73
2022-07-29T18:01:04.940Z,15.56
2022-07-29T18:03:35.686Z,15.70
2022-07-29T18:06:08.869Z,15.62
2022-07-29T18:08:41.287Z,15.81
2022-07-29T18:11:14.908Z,15.89
2022-07-29T18:13:45.739Z,15.83
2022-07-29T18:16:16.234Z,15.91
2022-07-29T18:18:48.068Z,15.72
2022-07-29T18:21:37.569Z,15.91
2022-07-29T18:24:09.798Z,15.88
2022-07-29T18:26:40.628Z,15.76
2022-07-29T18:29:13.199Z,16.01
2022-07-29T18:31:43.946Z,16.05
2022-07-29T18:34:15.105Z,16.34
2022-07-29T18:36:47.346Z,16.46
2022-07-29T18:39:20.228Z,16.52
2022-07-29T18:41:53.046Z,16.43
2022-07-29T18:44:25.237Z,16.33
2022-07-29T18:46:57.486Z,16.32
2022-07-29T18:49:29.355Z,16.24
2022-07-29T18:52:00.789Z,16.22
2022-07-29T18:54:33.186Z,16.21
2022-07-29T18:57:54.921Z,16.37
2022-07-29T18:59:56.057Z,16.03
2022-07-29T19:02:26.618Z,16.24
2022-07-29T19:04:58.638Z,16.09
2022-07-29T19:07:31.418Z,16.01
2022-07-29T19:10:02.485Z,16.21
2022-07-29T19:12:33.875Z,16.26
2022-07-29T19:15:05.607Z,16.14
2022-07-29T19:17:39.165Z,16.09
2022-07-29T19:20:11.348Z,15.79
2022-07-29T19:22:43.508Z,16.32
2022-07-29T19:25:13.680Z,16.33
2022-07-29T19:27:46.878Z,16.28
2022-07-29T19:30:18.305Z,15.66
2022-07-29T19:32:51.783Z,16.20
2022-07-29T19:35:34.665Z,16.10
2022-07-29T19:38:06.452Z,16.13
2022-07-29T19:40:37.086Z,16.20
2022-07-29T19:43:51.209Z,16.22
2022-07-29T19:46:00.988Z,16.26
2022-07-29T19:48:31.812Z,15.99
2022-07-29T19:51:02.305Z,16.11
2022-07-29T19:53:32.613Z,16.09
2022-07-29T19:56:03.388Z,15.91
2022-07-29T19:58:35.678Z,16.13
2022-07-29T20:01:10.284Z,16.14
2022-07-29T20:03:46.475Z,16.07
2022-07-29T20:06:17.883Z,16.03
2022-07-29T20:08:50.044Z,16.22
2022-07-29T20:11:20.770Z,16.17
2022-07-29T20:13:51.521Z,16.01
2022-07-29T20:16:25.444Z,16.10
2022-07-29T20:18:58.225Z,15.97
2022-07-29T20:21:29.668Z,15.94
2022-07-29T20:24:03.362Z,15.90
2022-07-29T20:26:34.082Z,15.92
2022-07-29T20:29:07.206Z,15.54
2022-07-29T20:31:38.146Z,15.95
2022-07-29T20:34:09.162Z,15.91
2022-07-29T20:36:41.203Z,15.44
2022-07-29T20:39:12.881Z,15.87
2022-07-29T20:41:45.264Z,15.74
2022-07-29T20:44:16.704Z,15.83
2022-07-29T20:46:51.982Z,15.68
2022-07-29T20:49:23.198Z,15.64
2022-07-29T20:51:54.501Z,15.36
2022-07-29T20:54:28.881Z,15.92
2022-07-29T20:57:00.294Z,15.83
2022-07-29T20:59:33.523Z,15.85
2022-07-29T21:02:05.764Z,15.75
2022-07-29T21:04:38.463Z,15.80
2022-07-29T21:07:09.002Z,15.84
2022-07-29T21:09:40.704Z,15.69
2022-07-29T21:12:13.102Z,15.64
2022-07-29T21:14:49.503Z,15.74
2022-07-29T21:17:22.808Z,15.49
2022-07-29T21:19:55.424Z,15.67
2022-07-29T21:22:26.562Z,15.65
2022-07-29T21:25:00.627Z,15.70
2022-07-29T21:27:49.982Z,15.37
2022-07-29T21:30:21.542Z,15.80
2022-07-29T21:32:52.691Z,15.81
2022-07-29T21:36:06.948Z,15.84
2022-07-29T21:38:19.042Z,15.92
2022-07-29T21:40:51.522Z,15.97
2022-07-29T21:43:23.684Z,15.87
2022-07-29T21:45:56.054Z,15.96
2022-07-29T21:48:28.998Z,15.74
2022-07-29T21:50:59.912Z,15.89
2022-07-29T21:53:33.593Z,15.84
2022-07-29T21:56:06.029Z,15.86
2022-07-29T21:58:41.267Z,15.86
2022-07-29T22:01:12.194Z,15.71
2022-07-29T22:03:43.742Z,15.86
2022-07-29T22:06:18.433Z,15.89
2022-07-29T22:08:50.823Z,15.91
2022-07-29T22:11:22.559Z,15.91
2022-07-29T22:13:53.503Z,15.93
2022-07-29T22:16:24.190Z,15.97
2022-07-29T22:18:54.463Z,16.15
2022-07-29T22:21:26.244Z,15.95
2022-07-29T22:23:57.891Z,16.17
2022-07-29T22:26:28.880Z,16.22
2022-07-29T22:28:59.053Z,15.99
2022-07-29T22:31:29.432Z,16.25
2022-07-29T22:34:00.595Z,16.06
2022-07-29T22:36:30.663Z,16.09
2022-07-29T22:39:01.008Z,16.15
2022-07-29T22:41:31.442Z,16.15
2022-07-29T22:44:02.122Z,16.35
2022-07-29T22:46:32.418Z,16.34
2022-07-29T22:49:07.175Z,16.19
2022-07-29T22:51:37.310Z,16.03
2022-07-29T22:54:09.815Z,16.10
2022-07-29T22:56:40.683Z,16.07
2022-07-29T22:59:11.282Z,16.36
2022-07-29T23:01:42.636Z,16.26
2022-07-29T23:04:13.306Z,16.35
2022-07-29T23:06:44.698Z,16.12
2022-07-29T23:09:15.307Z,16.22
2022-07-29T23:11:47.636Z,16.23
2022-07-29T23:14:18.641Z,16.20
2022-07-29T23:16:49.244Z,16.20
2022-07-29T23:19:20.589Z,16.09
2022-07-29T23:21:51.802Z,16.34
2022-07-29T23:24:21.935Z,16.31
2022-07-29T23:26:51.848Z,16.31
2022-07-29T23:29:23.439Z,16.02
2022-07-29T23:31:55.757Z,16.19
2022-07-29T23:34:27.337Z,16.20
2022-07-29T23:36:57.796Z,16.24
2022-07-29T23:39:30.068Z,16.37
2022-07-29T23:42:01.017Z,16.12
2022-07-29T23:44:31.762Z,16.28
2022-07-29T23:47:02.124Z,16.37
